Time;durP1;ratioP1;P1;durP2;ratioP2;P2;SDS_P1;SDS_P2;PMS_P1;PMS_P2;Temp;Humidity;BMP_temperature;BMP_pressure;BME280_temperature;BME280_humidity;BME280_pressure;Samples;Min_cycle;Max_cycle;Signal;HPM_P1;HPM_P2
2021/07/31 00:00:20;;;;;;;12.20;9.60;;;;;;;21.27;68.81;96190.84;5068670;28;20254;-66
2021/07/31 00:02:46;;;;;;;10.53;8.57;;;;;;;21.48;69.02;96183.94;5066416;28;20206;-65
2021/07/31 00:05:13;;;;;;;12.17;9.27;;;;;;;21.58;67.40;96197.38;5071776;28;20281;-66
2021/07/31 00:07:41;;;;;;;9.80;8.83;;;;;;;21.57;66.97;96195.78;5061425;28;20870;-66
2021/07/31 00:10:07;;;;;;;19.90;8.70;;;;;;;21.64;65.73;96190.28;5065924;28;20424;-68
2021/07/31 00:12:32;;;;;;;8.80;7.90;;;;;;;21.62;66.84;96192.41;5072250;28;20421;-65
2021/07/31 00:14:58;;;;;;;11.73;8.00;;;;;;;21.62;66.12;96195.06;5072248;28;20186;-66
2021/07/31 00:17:23;;;;;;;9.00;8.10;;;;;;;21.73;65.22;96196.81;5067917;28;20247;-65
2021/07/31 00:19:49;;;;;;;13.83;7.97;;;;;;;21.76;65.21;96192.84;5072004;28;20190;-65
2021/07/31 00:22:14;;;;;;;9.97;7.60;;;;;;;21.69;65.81;96202.88;5071866;28;20202;-66
2021/07/31 00:24:40;;;;;;;11.13;8.30;;;;;;;21.51;67.52;96202.09;5071652;28;20248;-68
2021/07/31 00:27:06;;;;;;;9.10;8.13;;;;;;;21.62;66.17;96206.53;5057042;28;20198;-65
2021/07/31 00:29:31;;;;;;;14.30;8.10;;;;;;;21.39;67.25;96209.41;5073081;28;20217;-65
2021/07/31 00:31:57;;;;;;;12.50;9.77;;;;;;;21.26;68.13;96203.38;5072239;28;20186;-69
2021/07/31 00:34:22;;;;;;;12.00;8.50;;;;;;;21.10;69.15;96209.53;5070484;28;20643;-67
2021/07/31 00:36:48;;;;;;;9.33;8.10;;;;;;;21.44;68.13;96214.78;5070565;28;20229;-65
2021/07/31 00:39:14;;;;;;;12.87;8.30;;;;;;;21.35;66.81;96209.09;5070778;28;20708;-66
2021/07/31 00:41:39;;;;;;;8.53;7.63;;;;;;;21.42;65.84;96211.59;5071677;28;20198;-67
2021/07/31 00:44:05;;;;;;;7.27;6.27;;;;;;;21.36;64.40;96210.69;5052788;28;20288;-66
2021/07/31 00:46:31;;;;;;;10.00;6.67;;;;;;;21.62;63.91;96209.22;5071355;28;20182;-66
2021/07/31 00:48:56;;;;;;;7.20;5.37;;;;;;;21.74;61.93;96201.06;5071481;28;20641;-66
2021/07/31 00:51:22;;;;;;;6.20;4.63;;;;;;;21.37;62.16;96209.63;5070060;28;20435;-66
2021/07/31 00:53:49;;;;;;;5.60;5.00;;;;;;;21.61;60.60;96212.13;5070681;28;20206;-67
2021/07/31 00:56:15;;;;;;;6.30;4.50;;;;;;;21.52;60.84;96206.38;5054176;28;20536;-65
2021/07/31 00:58:42;;;;;;;6.93;4.37;;;;;;;21.36;60.81;96204.56;5071639;28;20525;-65
2021/07/31 01:01:07;;;;;;;7.63;4.40;;;;;;;21.36;61.41;96215.22;5071058;28;20464;-64
2021/07/31 01:03:33;;;;;;;6.70;4.10;;;;;;;21.57;61.06;96217.09;5070973;28;20448;-68
2021/07/31 01:05:59;;;;;;;4.70;4.20;;;;;;;21.81;60.50;96208.09;5070237;28;20610;-67
2021/07/31 01:08:24;;;;;;;5.30;4.80;;;;;;;21.48;61.09;96219.38;5053197;28;20192;-66
2021/07/31 01:10:50;;;;;;;7.30;5.17;;;;;;;21.79;60.46;96225.16;5070142;28;20190;-66
2021/07/31 01:13:16;;;;;;;6.50;5.00;;;;;;;21.89;60.66;96219.13;5053457;28;20243;-69
2021/07/31 01:15:56;;;;;;;8.83;5.10;;;;;;;21.50;62.05;96219.16;5071889;28;20425;-67
2021/07/31 01:18:22;;;;;;;8.03;5.60;;;;;;;21.57;62.93;96222.44;5062556;28;20424;-71
2021/07/31 01:20:48;;;;;;;10.53;6.43;;;;;;;21.35;64.80;96221.59;5070737;28;20934;-66
2021/07/31 01:23:13;;;;;;;8.80;6.00;;;;;;;21.68;63.93;96217.25;5070496;28;20259;-66
2021/07/31 01:25:39;;;;;;;9.17;6.60;;;;;;;20.93;66.23;96212.22;5053362;28;20694;-66
2021/07/31 01:28:04;;;;;;;10.73;5.80;;;;;;;20.90;67.05;96216.16;5047164;28;20211;-66
2021/07/31 01:30:30;;;;;;;7.37;6.17;;;;;;;20.86;67.50;96217.69;5055128;28;20244;-67
2021/07/31 01:32:55;;;;;;;9.93;5.67;;;;;;;20.88;68.59;96215.59;5070480;28;20300;-67
2021/07/31 01:35:21;;;;;;;10.37;5.80;;;;;;;21.29;67.17;96215.41;5068867;28;20289;-67
2021/07/31 01:37:46;;;;;;;8.60;6.67;;;;;;;20.58;69.45;96214.00;5070682;28;20186;-67
2021/07/31 01:40:13;;;;;;;10.17;6.20;;;;;;;20.79;68.63;96211.75;5070343;28;20261;-68
2021/07/31 01:42:38;;;;;;;9.87;6.60;;;;;;;20.87;68.02;96219.31;5070806;28;20294;-67
2021/07/31 01:45:05;;;;;;;7.33;6.43;;;;;;;21.09;68.30;96215.91;5069859;28;20880;-66
2021/07/31 01:47:30;;;;;;;8.13;6.10;;;;;;;21.19;66.53;96213.38;5073948;28;20831;-65
2021/07/31 01:49:56;;;;;;;11.13;6.40;;;;;;;20.92;67.57;96199.94;5066664;28;20416;-66
2021/07/31 01:52:22;;;;;;;9.60;5.53;;;;;;;21.30;66.48;96199.16;5074246;28;20226;-67
2021/07/31 01:54:47;;;;;;;15.53;5.90;;;;;;;21.23;65.62;96206.53;5073940;28;20274;-67
2021/07/31 01:57:13;;;;;;;8.33;5.80;;;;;;;20.71;67.10;96207.59;5058203;28;20721;-66
2021/07/31 01:59:39;;;;;;;11.13;6.10;;;;;;;20.81;66.96;96201.63;5074545;28;20740;-66
2021/07/31 02:02:05;;;;;;;6.90;5.83;;;;;;;21.08;65.86;96208.97;5072630;28;20210;-67
2021/07/31 02:04:33;;;;;;;10.07;5.43;;;;;;;21.19;65.69;96210.72;5073290;28;20220;-67
2021/07/31 02:06:59;;;;;;;7.67;5.77;;;;;;;21.33;65.55;96205.88;5067094;28;20476;-66
2021/07/31 02:09:25;;;;;;;10.70;5.27;;;;;;;21.48;64.02;96202.59;5077974;28;20413;-65
2021/07/31 02:11:50;;;;;;;11.17;4.53;;;;;;;21.81;63.66;96200.88;5069292;28;20420;-65
2021/07/31 02:14:16;;;;;;;5.63;5.00;;;;;;;21.87;62.68;96199.91;5073557;28;20321;-67
2021/07/31 02:16:42;;;;;;;7.97;5.00;;;;;;;21.60;60.78;96200.66;5072915;28;20186;-66
2021/07/31 02:19:07;;;;;;;10.40;4.67;;;;;;;21.71;61.33;96201.59;5073635;28;20530;-66
2021/07/31 02:21:33;;;;;;;9.03;4.37;;;;;;;21.88;60.60;96201.53;5073793;28;20202;-65
2021/07/31 02:23:58;;;;;;;5.10;3.97;;;;;;;21.94;59.68;96205.84;5071698;28;20209;-67
2021/07/31 02:26:24;;;;;;;6.90;4.60;;;;;;;21.91;61.14;96203.69;5057931;28;20179;-65
2021/07/31 02:28:50;;;;;;;7.27;4.00;;;;;;;22.23;60.33;96204.84;5073915;28;20320;-65
2021/07/31 02:31:16;;;;;;;6.57;4.27;;;;;;;22.23;58.54;96196.81;5073727;28;20204;-65
2021/07/31 02:33:42;;;;;;;5.17;3.97;;;;;;;22.19;60.01;96203.72;5073105;28;20912;-66
2021/07/31 02:36:08;;;;;;;10.00;4.00;;;;;;;22.07;57.99;96204.66;5073917;28;20675;-66
2021/07/31 02:38:34;;;;;;;7.67;4.07;;;;;;;21.70;57.01;96204.50;5073356;28;20229;-65
2021/07/31 02:41:00;;;;;;;7.83;3.60;;;;;;;21.51;58.11;96211.94;5073809;28;20429;-66
2021/07/31 02:43:25;;;;;;;10.70;3.60;;;;;;;21.26;58.28;96211.38;5073949;28;20451;-65
2021/07/31 02:45:51;;;;;;;6.03;3.67;;;;;;;21.12;59.22;96215.41;5074637;28;20542;-65
2021/07/31 02:48:16;;;;;;;4.10;3.60;;;;;;;21.41;60.45;96208.09;5074107;28;20265;-65
2021/07/31 02:50:42;;;;;;;5.37;3.33;;;;;;;21.85;59.02;96202.00;5072833;28;20484;-66
2021/07/31 02:53:07;;;;;;;6.80;4.00;;;;;;;22.04;57.78;96204.38;5073318;28;20202;-66
2021/07/31 02:55:33;;;;;;;6.90;3.63;;;;;;;22.16;57.54;96202.38;5052144;28;20184;-65
2021/07/31 02:57:59;;;;;;;4.60;3.30;;;;;;;21.47;55.35;96206.31;5065568;28;20223;-66
2021/07/31 03:00:24;;;;;;;5.30;3.80;;;;;;;20.70;57.35;96209.41;5073976;28;20179;-65
2021/07/31 03:02:50;;;;;;;15.20;3.40;;;;;;;20.30;58.59;96205.00;5072351;28;20199;-68
2021/07/31 03:05:15;;;;;;;7.47;2.90;;;;;;;20.16;58.65;96207.16;5072375;28;20186;-66
2021/07/31 03:07:41;;;;;;;5.40;3.60;;;;;;;19.60;59.95;96206.84;5074069;28;20186;-66
2021/07/31 03:10:07;;;;;;;8.30;2.83;;;;;;;19.37;61.36;96202.38;5073742;28;20212;-66
2021/07/31 03:12:33;;;;;;;6.00;2.40;;;;;;;19.14;61.02;96209.31;5057846;28;20266;-66
2021/07/31 03:14:59;;;;;;;4.60;2.90;;;;;;;18.94;61.38;96204.34;5077127;28;20677;-66
2021/07/31 03:17:24;;;;;;;6.63;2.70;;;;;;;18.88;62.12;96206.88;5088730;28;20182;-66
2021/07/31 03:19:50;;;;;;;5.57;2.87;;;;;;;18.68;63.12;96204.53;5084572;28;20178;-66
2021/07/31 03:22:16;;;;;;;8.13;3.27;;;;;;;18.40;64.18;96205.97;5088620;28;20194;-67
2021/07/31 03:24:42;;;;;;;7.00;2.90;;;;;;;18.83;62.59;96206.75;5072260;28;20220;-66
2021/07/31 03:27:08;;;;;;;9.23;3.60;;;;;;;18.58;63.26;96199.78;5072195;28;20182;-66
2021/07/31 03:29:34;;;;;;;4.60;3.00;;;;;;;18.73;62.54;96206.50;5081765;28;20473;-65
2021/07/31 03:32:00;;;;;;;7.13;2.70;;;;;;;18.79;62.94;96202.13;5072996;28;20193;-65
2021/07/31 03:34:26;;;;;;;4.63;2.57;;;;;;;18.86;62.19;96200.97;5061359;28;20445;-65
2021/07/31 03:36:51;;;;;;;4.87;2.80;;;;;;;18.75;62.27;96201.78;5054541;28;20293;-66
2021/07/31 03:39:22;;;;;;;4.23;2.70;;;;;;;18.73;61.97;96198.53;5062222;28;20998;-65
2021/07/31 03:41:48;;;;;;;4.10;2.57;;;;;;;18.69;61.71;96203.50;5072217;28;20199;-66
2021/07/31 03:44:13;;;;;;;6.57;2.30;;;;;;;18.36;62.37;96202.13;5057863;28;20806;-67
2021/07/31 03:46:46;;;;;;;6.47;3.07;;;;;;;18.49;65.74;96202.97;5059879;28;20174;-67
2021/07/31 03:49:12;;;;;;;7.97;2.50;;;;;;;19.10;59.51;96210.81;5054050;28;20266;-66
2021/07/31 03:51:41;;;;;;;4.93;2.57;;;;;;;18.97;61.54;96204.69;5051788;28;20418;-65
2021/07/31 03:54:06;;;;;;;6.90;2.70;;;;;;;18.48;60.38;96206.66;5051237;28;20441;-65
2021/07/31 03:56:33;;;;;;;5.87;2.50;;;;;;;18.45;60.63;96202.63;5059964;28;20762;-66
2021/07/31 03:58:58;;;;;;;8.40;2.67;;;;;;;18.64;59.75;96206.03;5052035;28;20228;-66
2021/07/31 04:01:25;;;;;;;3.10;2.40;;;;;;;18.66;60.73;96205.78;5051598;28;20449;-65
2021/07/31 04:03:52;;;;;;;11.13;2.77;;;;;;;18.79;59.83;96200.25;5058452;28;20252;-65
2021/07/31 04:06:17;;;;;;;10.90;2.60;;;;;;;18.93;61.27;96198.22;5051383;28;20467;-65
2021/07/31 04:08:43;;;;;;;6.43;2.40;;;;;;;19.24;60.85;96201.56;5051174;28;20815;-66
2021/07/31 04:11:09;;;;;;;8.93;2.43;;;;;;;18.68;59.37;96201.88;5051419;28;20585;-65
2021/07/31 04:13:35;;;;;;;5.70;2.70;;;;;;;18.73;59.88;96203.84;5057134;28;20292;-65
2021/07/31 04:16:00;;;;;;;8.60;2.87;;;;;;;19.22;59.95;96202.84;5056704;28;20276;-66
2021/07/31 04:18:26;;;;;;;4.27;2.50;;;;;;;19.28;57.77;96196.63;5051563;28;20182;-66
2021/07/31 04:20:51;;;;;;;6.17;2.20;;;;;;;19.19;58.74;96201.47;5051332;28;20237;-66
2021/07/31 04:23:17;;;;;;;7.07;2.27;;;;;;;18.81;58.35;96203.50;5067139;28;20816;-67
2021/07/31 04:25:43;;;;;;;4.17;2.50;;;;;;;18.92;58.17;96211.69;5030106;28;20175;-65
2021/07/31 04:28:09;;;;;;;7.67;2.10;;;;;;;19.09;59.31;96217.97;5048881;28;20421;-66
2021/07/31 04:30:36;;;;;;;4.20;2.40;;;;;;;19.53;59.65;96216.81;5051319;28;20418;-64
2021/07/31 04:33:01;;;;;;;12.43;2.10;;;;;;;19.23;57.45;96223.06;5051265;28;20195;-65
2021/07/31 04:35:27;;;;;;;4.53;2.40;;;;;;;19.76;56.34;96227.38;5050667;28;20837;-66
2021/07/31 04:37:52;;;;;;;6.07;2.30;;;;;;;20.33;56.59;96220.50;5050769;28;20256;-65
2021/07/31 04:40:18;;;;;;;5.10;2.00;;;;;;;21.09;54.54;96222.06;5050728;28;20185;-65
2021/07/31 04:42:44;;;;;;;4.37;2.10;;;;;;;21.40;52.49;96233.13;5059149;28;20206;-66
2021/07/31 04:45:10;;;;;;;4.97;2.73;;;;;;;21.25;52.70;96228.41;5045133;28;20214;-66
2021/07/31 04:47:39;;;;;;;6.63;1.83;;;;;;;21.13;51.75;96241.81;5050871;28;20642;-65
2021/07/31 04:50:06;;;;;;;3.30;2.10;;;;;;;19.74;54.91;96240.09;5050455;28;20520;-67
2021/07/31 04:52:32;;;;;;;7.83;2.50;;;;;;;19.55;58.28;96241.28;5050666;28;20417;-65
2021/07/31 04:54:57;;;;;;;3.97;1.97;;;;;;;20.29;55.16;96237.97;5050613;28;20808;-65
2021/07/31 04:57:23;;;;;;;7.90;2.10;;;;;;;20.52;54.15;96241.59;5053529;28;20261;-66
2021/07/31 04:59:48;;;;;;;6.63;2.40;;;;;;;20.38;54.55;96244.56;5056265;28;20181;-66
2021/07/31 05:02:14;;;;;;;6.90;2.13;;;;;;;20.22;53.65;96235.50;5049247;28;20206;-65
2021/07/31 05:04:39;;;;;;;6.00;2.20;;;;;;;20.10;54.44;96242.69;5047328;28;20206;-66
2021/07/31 05:07:07;;;;;;;4.23;1.90;;;;;;;19.76;55.10;96237.19;5050327;28;20265;-66
2021/07/31 05:09:33;;;;;;;11.10;2.00;;;;;;;19.76;54.59;96243.34;5059194;28;20233;-62
2021/07/31 05:11:59;;;;;;;2.70;1.97;;;;;;;19.25;55.76;96240.38;5050763;28;20445;-65
2021/07/31 05:14:26;;;;;;;6.40;2.40;;;;;;;19.37;55.67;96242.22;5052463;28;20532;-65
2021/07/31 05:16:51;;;;;;;7.27;1.80;;;;;;;19.43;55.33;96246.63;5049235;28;20716;-65
2021/07/31 05:19:17;;;;;;;8.67;2.47;;;;;;;19.65;54.98;96244.16;5050217;28;20421;-64
2021/07/31 05:21:43;;;;;;;12.00;1.93;;;;;;;19.56;55.15;96245.56;5052511;28;20740;-64
2021/07/31 05:24:08;;;;;;;4.23;2.07;;;;;;;19.50;55.21;96241.97;5047795;28;20207;-66
2021/07/31 05:26:36;;;;;;;3.10;2.13;;;;;;;19.72;54.95;96241.38;5055721;28;20254;-65
2021/07/31 05:29:02;;;;;;;6.43;2.00;;;;;;;19.39;55.91;96248.09;5054798;28;20175;-65
2021/07/31 05:31:27;;;;;;;4.40;1.90;;;;;;;19.31;56.36;96250.09;5041608;28;20409;-66
2021/07/31 05:33:53;;;;;;;12.47;2.30;;;;;;;19.43;55.77;96244.75;5055140;28;20226;-67
2021/07/31 05:36:19;;;;;;;5.67;2.20;;;;;;;19.53;55.09;96254.81;5057184;28;20182;-67
2021/07/31 05:38:44;;;;;;;3.00;1.97;;;;;;;19.58;55.37;96254.09;5063766;28;20643;-66
2021/07/31 05:41:14;;;;;;;2.63;1.93;;;;;;;19.51;55.58;96256.09;5064072;28;20183;-66
2021/07/31 05:43:40;;;;;;;11.93;2.00;;;;;;;19.77;55.18;96250.28;5053769;28;20583;-67
2021/07/31 05:46:05;;;;;;;3.87;2.07;;;;;;;20.21;53.52;96259.66;5049571;28;20430;-66
2021/07/31 05:48:31;;;;;;;6.10;2.33;;;;;;;20.10;54.66;96250.66;5054313;28;20175;-66
2021/07/31 05:50:56;;;;;;;9.60;2.30;;;;;;;19.40;56.92;96255.88;5053975;28;20292;-66
2021/07/31 05:53:22;;;;;;;7.90;2.47;;;;;;;20.30;54.45;96250.22;5060581;28;20210;-67
2021/07/31 05:55:48;;;;;;;7.70;2.73;;;;;;;19.98;55.74;96256.03;5048274;28;20179;-65
2021/07/31 05:58:13;;;;;;;4.43;2.47;;;;;;;20.52;53.89;96253.03;5050242;28;20249;-67
2021/07/31 06:00:39;;;;;;;4.07;2.13;;;;;;;20.37;54.81;96250.91;5053184;28;20184;-66
2021/07/31 06:03:04;;;;;;;4.53;2.10;;;;;;;20.19;55.32;96251.09;5050961;28;20584;-67
2021/07/31 06:05:30;;;;;;;6.60;2.47;;;;;;;20.49;54.24;96252.72;5047709;28;20271;-67
2021/07/31 06:07:56;;;;;;;6.50;2.83;;;;;;;20.40;54.83;96247.78;5047130;28;20184;-65
2021/07/31 06:10:21;;;;;;;3.53;2.03;;;;;;;20.22;54.70;96240.00;5061268;28;20184;-67
2021/07/31 06:12:47;;;;;;;6.23;2.10;;;;;;;20.26;55.13;96243.78;5073956;28;20179;-67
2021/07/31 06:15:12;;;;;;;6.27;2.77;;;;;;;20.60;53.90;96249.19;5026561;28;20180;-66
2021/07/31 06:17:38;;;;;;;3.90;2.63;;;;;;;20.81;54.31;96241.56;5048142;28;20186;-63
2021/07/31 06:20:04;;;;;;;13.47;2.70;;;;;;;20.66;54.11;96240.25;5039218;28;20179;-67
2021/07/31 06:22:30;;;;;;;9.83;2.43;;;;;;;20.12;55.54;96245.13;5048475;28;20243;-67
2021/07/31 06:24:55;;;;;;;4.87;2.23;;;;;;;20.55;54.58;96252.56;5062982;28;20966;-66
2021/07/31 06:27:21;;;;;;;9.80;3.00;;;;;;;20.47;55.43;96246.81;5073035;28;20281;-68
2021/07/31 06:29:47;;;;;;;6.77;2.70;;;;;;;21.02;53.01;96251.50;5072402;28;20197;-66
2021/07/31 06:32:12;;;;;;;5.93;1.90;;;;;;;21.11;52.07;96254.56;5051803;28;20298;-64
2021/07/31 06:34:38;;;;;;;5.90;2.50;;;;;;;21.40;51.33;96257.13;5047184;28;20199;-66
2021/07/31 06:37:03;;;;;;;4.23;1.90;;;;;;;21.80;50.17;96257.94;5059106;28;20233;-67
2021/07/31 06:39:29;;;;;;;1.90;1.80;;;;;;;20.97;51.58;96250.63;5072928;28;20198;-66
2021/07/31 06:41:55;;;;;;;4.00;2.00;;;;;;;21.31;51.00;96253.25;5072681;28;20259;-66
2021/07/31 06:44:20;;;;;;;8.50;2.00;;;;;;;21.74;48.98;96265.06;5072910;28;20318;-68
2021/07/31 06:46:46;;;;;;;4.00;2.03;;;;;;;21.59;49.17;96260.34;5073030;28;20192;-65
2021/07/31 06:49:11;;;;;;;16.67;1.80;;;;;;;21.23;49.51;96262.47;5063801;28;20638;-64
2021/07/31 06:51:39;;;;;;;3.90;2.00;;;;;;;21.38;49.94;96255.75;5072681;28;20178;-66
2021/07/31 06:54:04;;;;;;;2.93;1.90;;;;;;;21.64;49.32;96259.59;5059419;28;20196;-66
2021/07/31 06:56:33;;;;;;;3.20;2.07;;;;;;;21.62;49.82;96259.03;5071523;28;20415;-65
2021/07/31 06:58:58;;;;;;;5.07;2.10;;;;;;;22.24;47.73;96246.47;5073030;28;20236;-65
2021/07/31 07:01:24;;;;;;;6.00;2.33;;;;;;;22.69;47.02;96248.00;5050715;28;20955;-65
2021/07/31 07:03:52;;;;;;;15.40;2.30;;;;;;;23.16;46.13;96251.84;5062329;28;20228;-68
2021/07/31 07:06:17;;;;;;;5.23;2.40;;;;;;;23.07;45.92;96248.03;5065641;28;20186;-66
2021/07/31 07:08:43;;;;;;;4.57;1.93;;;;;;;22.69;47.36;96252.50;5072824;28;20421;-66
2021/07/31 07:11:12;;;;;;;4.57;2.30;;;;;;;22.50;47.11;96250.22;5072937;28;20520;-66
2021/07/31 07:13:38;;;;;;;8.40;2.00;;;;;;;22.95;46.21;96245.53;5072588;28;20548;-68
2021/07/31 07:16:05;;;;;;;2.67;1.67;;;;;;;21.80;48.35;96249.94;5072438;28;20770;-67
2021/07/31 07:18:30;;;;;;;4.00;1.73;;;;;;;21.81;48.73;96248.88;5071228;28;20759;-66
2021/07/31 07:20:56;;;;;;;2.90;1.87;;;;;;;22.90;45.94;96247.38;5052494;28;20452;-68
2021/07/31 07:23:21;;;;;;;4.80;2.30;;;;;;;22.42;46.68;96248.00;5071279;28;20206;-65
2021/07/31 07:25:47;;;;;;;3.30;2.07;;;;;;;22.39;47.64;96243.94;5043262;28;20274;-64
2021/07/31 07:28:12;;;;;;;6.03;2.40;;;;;;;22.19;47.14;96255.19;5049954;28;20202;-66
2021/07/31 07:30:38;;;;;;;7.20;2.30;;;;;;;22.02;48.25;96254.47;5048339;28;20263;-66
2021/07/31 07:33:04;;;;;;;7.43;2.53;;;;;;;22.47;47.08;96245.38;5043931;28;20334;-65
2021/07/31 07:35:30;;;;;;;7.77;2.47;;;;;;;22.13;48.01;96250.88;5046361;28;20678;-65
2021/07/31 07:37:56;;;;;;;5.17;2.20;;;;;;;23.02;45.94;96246.13;5042643;28;20694;-67
2021/07/31 07:40:23;;;;;;;3.77;2.23;;;;;;;23.11;45.32;96241.13;5064234;28;20447;-66
2021/07/31 07:42:49;;;;;;;8.33;1.97;;;;;;;22.42;44.98;96245.34;5067637;28;20541;-67
2021/07/31 07:45:14;;;;;;;4.53;2.20;;;;;;;22.83;44.03;96243.03;5064879;28;20524;-66
2021/07/31 07:47:40;;;;;;;6.63;2.13;;;;;;;22.82;43.81;96246.75;5071945;28;20485;-66
2021/07/31 07:50:07;;;;;;;6.83;2.40;;;;;;;22.50;44.49;96247.56;5071887;28;20182;-67
2021/07/31 07:52:32;;;;;;;8.40;1.57;;;;;;;22.91;43.76;96244.44;5069612;28;20186;-65
2021/07/31 07:54:58;;;;;;;7.10;2.30;;;;;;;23.27;42.90;96254.63;5053215;28;20441;-68
2021/07/31 07:57:24;;;;;;;4.40;1.90;;;;;;;23.36;42.87;96249.59;5071876;28;20178;-66
2021/07/31 07:59:49;;;;;;;5.20;1.60;;;;;;;23.30;42.99;96254.91;5071836;28;20664;-65
2021/07/31 08:02:15;;;;;;;5.70;1.90;;;;;;;24.01;41.25;96244.06;5071249;28;20277;-66
2021/07/31 08:04:41;;;;;;;4.13;1.60;;;;;;;24.36;40.98;96240.69;5069838;28;20202;-66
2021/07/31 08:07:07;;;;;;;6.60;1.80;;;;;;;24.37;40.66;96246.84;5071660;28;20186;-66
2021/07/31 08:09:37;;;;;;;4.37;2.00;;;;;;;24.31;40.78;96242.53;5069979;28;20186;-67
2021/07/31 08:12:04;;;;;;;5.40;1.70;;;;;;;23.98;40.77;96242.72;5067618;28;20504;-66
2021/07/31 08:14:29;;;;;;;5.87;2.10;;;;;;;23.63;41.96;96244.13;5068639;28;20525;-66
2021/07/31 08:16:57;;;;;;;9.87;1.80;;;;;;;23.80;41.12;96243.94;5071258;28;20544;-67
2021/07/31 08:19:23;;;;;;;2.70;1.87;;;;;;;23.97;40.82;96237.63;5057649;28;20260;-65
2021/07/31 08:21:48;;;;;;;4.33;1.80;;;;;;;23.57;41.38;96239.81;5044779;28;20461;-66
2021/07/31 08:24:16;;;;;;;4.60;2.53;;;;;;;23.11;41.98;96237.66;5050830;28;20541;-66
2021/07/31 08:26:43;;;;;;;3.70;2.07;;;;;;;23.06;42.39;96245.63;5067946;28;20167;-67
2021/07/31 08:29:10;;;;;;;7.37;1.90;;;;;;;23.56;41.92;96241.69;5069984;28;20417;-66
2021/07/31 08:31:38;;;;;;;4.80;1.87;;;;;;;23.64;41.51;96235.06;5056632;28;20885;-66
2021/07/31 08:34:03;;;;;;;5.83;2.23;;;;;;;23.59;41.92;96238.50;5058683;28;20439;-66
2021/07/31 08:36:29;;;;;;;4.67;1.90;;;;;;;23.01;42.64;96238.38;5053770;28;20427;-65
2021/07/31 08:38:56;;;;;;;4.80;1.50;;;;;;;23.04;43.17;96237.06;5070767;28;20194;-66
2021/07/31 08:41:22;;;;;;;5.27;1.80;;;;;;;23.67;41.83;96242.56;5070591;28;20193;-66
2021/07/31 08:43:48;;;;;;;4.00;1.60;;;;;;;23.51;42.53;96240.88;5070216;28;20448;-66
2021/07/31 08:46:14;;;;;;;6.00;2.00;;;;;;;23.07;42.88;96239.22;5062548;28;20187;-67
2021/07/31 08:48:41;;;;;;;2.70;1.70;;;;;;;22.78;43.04;96247.53;5070837;28;20206;-66
2021/07/31 08:51:08;;;;;;;8.00;2.33;;;;;;;23.91;40.74;96250.94;5070588;28;20186;-66
2021/07/31 08:53:34;;;;;;;6.60;2.20;;;;;;;24.14;40.72;96242.78;5067902;28;20443;-66
2021/07/31 08:56:00;;;;;;;4.23;1.67;;;;;;;23.93;41.46;96253.38;5062222;28;20940;-66
2021/07/31 08:58:27;;;;;;;4.20;2.13;;;;;;;25.17;39.30;96242.09;5070323;28;20202;-66
2021/07/31 09:00:53;;;;;;;4.00;1.77;;;;;;;24.61;40.34;96239.13;5070733;28;20444;-65
2021/07/31 09:03:20;;;;;;;5.57;1.70;;;;;;;25.30;38.88;96239.69;5070017;28;20461;-65
2021/07/31 09:05:46;;;;;;;5.37;1.80;;;;;;;25.11;38.02;96241.28;5070958;28;20425;-67
2021/07/31 09:08:12;;;;;;;5.67;1.80;;;;;;;25.39;38.15;96239.13;5070473;28;20494;-66
2021/07/31 09:10:43;;;;;;;5.33;1.87;;;;;;;25.57;37.59;96235.91;5070311;28;20942;-66
2021/07/31 09:13:10;;;;;;;7.97;4.30;;;;;;;26.09;36.39;96235.69;5069223;28;20217;-67
2021/07/31 09:15:44;;;;;;;5.87;1.53;;;;;;;26.57;35.39;96223.66;5070678;28;20413;-66
2021/07/31 09:18:19;;;;;;;3.97;1.80;;;;;;;25.72;37.17;96232.38;5062731;28;20828;-67
2021/07/31 09:20:45;;;;;;;7.53;1.70;;;;;;;25.35;37.30;96225.47;5065905;28;20732;-66
2021/07/31 09:23:10;;;;;;;4.10;2.13;;;;;;;25.10;38.12;96226.28;5047209;28;20466;-65
2021/07/31 09:25:37;;;;;;;9.43;2.20;;;;;;;25.93;37.49;96216.16;5060493;28;20197;-66
2021/07/31 09:28:32;;;;;;;6.30;1.53;;;;;;;25.76;36.46;96219.19;5063306;28;20267;-65
2021/07/31 09:30:58;;;;;;;3.87;1.90;;;;;;;25.33;36.25;96208.03;5041382;28;20442;-66
2021/07/31 09:33:23;;;;;;;4.37;2.30;;;;;;;26.19;35.02;96213.38;5045427;28;20537;-66
2021/07/31 09:36:00;;;;;;;3.47;1.60;;;;;;;25.85;36.24;96217.53;5046968;28;20337;-68
2021/07/31 09:38:40;;;;;;;4.00;1.53;;;;;;;24.49;37.78;96217.16;5032888;28;20567;-67
2021/07/31 09:41:20;;;;;;;3.10;1.50;;;;;;;24.94;37.04;96207.56;5039227;28;20480;-66
2021/07/31 09:44:04;;;;;;;5.53;1.37;;;;;;;25.47;36.18;96213.66;5031446;28;20478;-66
2021/07/31 09:46:47;;;;;;;3.67;1.80;;;;;;;26.22;35.56;96212.84;5032822;28;20509;-66
2021/07/31 09:49:20;;;;;;;3.40;1.70;;;;;;;26.46;34.50;96207.59;5039690;28;20504;-66
2021/07/31 09:51:48;;;;;;;2.90;1.50;;;;;;;26.71;33.73;96194.25;5047666;28;20468;-66
2021/07/31 09:54:15;;;;;;;5.73;2.40;;;;;;;25.54;35.84;96209.63;5042126;28;20461;-66
2021/07/31 09:56:47;;;;;;;2.73;1.70;;;;;;;24.99;36.34;96210.22;5048001;28;20438;-67
2021/07/31 09:59:15;;;;;;;3.13;1.60;;;;;;;25.64;34.78;96207.97;5047930;28;20425;-66
2021/07/31 10:01:43;;;;;;;2.77;1.60;;;;;;;25.73;34.23;96211.69;5047244;28;20528;-66
2021/07/31 10:04:10;;;;;;;2.47;1.47;;;;;;;26.95;32.50;96203.22;5046191;28;20456;-66
2021/07/31 10:06:36;;;;;;;4.13;1.70;;;;;;;27.39;31.54;96192.59;5034709;28;20432;-67
2021/07/31 10:09:04;;;;;;;3.90;2.13;;;;;;;26.06;34.21;96188.72;5074113;28;20422;-66
2021/07/31 10:11:32;;;;;;;6.90;2.00;;;;;;;26.06;34.75;96188.72;5063766;28;20424;-66
2021/07/31 10:13:59;;;;;;;2.80;1.50;;;;;;;26.22;34.77;96191.38;5057109;28;20440;-66
2021/07/31 10:16:24;;;;;;;5.23;1.90;;;;;;;25.16;36.26;96198.41;5073298;28;20573;-67
2021/07/31 10:19:06;;;;;;;2.43;1.50;;;;;;;25.70;35.73;96196.16;5068436;28;20465;-66
2021/07/31 10:21:34;;;;;;;3.37;1.60;;;;;;;25.42;35.74;96191.13;5052310;28;20697;-68
2021/07/31 10:24:02;;;;;;;3.23;1.63;;;;;;;26.35;33.70;96190.75;5048802;28;20450;-66
2021/07/31 10:26:28;;;;;;;4.53;1.67;;;;;;;25.29;34.51;96192.50;5052308;28;20425;-66
2021/07/31 10:28:54;;;;;;;4.10;1.80;;;;;;;25.59;34.47;96196.19;5071413;28;20436;-65
2021/07/31 10:31:34;;;;;;;4.37;1.47;;;;;;;26.21;33.60;96195.13;5067281;28;20452;-66
2021/07/31 10:33:59;;;;;;;3.03;1.60;;;;;;;26.04;34.38;96195.47;5073851;28;20528;-66
2021/07/31 10:36:35;;;;;;;2.60;1.63;;;;;;;26.40;33.21;96206.03;5072671;28;20552;-67
2021/07/31 10:39:27;;;;;;;2.23;1.37;;;;;;;25.57;33.79;96203.72;5072680;28;20205;-67
2021/07/31 10:41:59;;;;;;;2.70;1.50;;;;;;;26.70;32.20;96196.16;5073211;28;20456;-67
2021/07/31 10:44:26;;;;;;;3.77;2.40;;;;;;;26.24;32.97;96193.75;5074330;28;20498;-67
2021/07/31 10:47:33;;;;;;;5.87;2.20;;;;;;;26.10;33.09;96190.88;5075220;28;20417;-67
2021/07/31 10:49:58;;;;;;;4.73;1.87;;;;;;;27.17;31.90;96190.38;5066659;28;20416;-66
2021/07/31 10:53:00;;;;;;;4.47;1.70;;;;;;;26.53;32.49;96197.34;5073134;28;20421;-66
2021/07/31 10:55:36;;;;;;;2.90;1.57;;;;;;;26.94;32.15;96195.44;5059022;28;20188;-65
2021/07/31 10:58:01;;;;;;;2.80;1.47;;;;;;;26.14;32.74;96205.38;5066361;28;20427;-67
2021/07/31 11:00:32;;;;;;;5.00;2.73;;;;;;;26.06;33.79;96198.69;5064474;28;20437;-66
2021/07/31 11:02:58;;;;;;;3.20;1.50;;;;;;;26.05;33.56;96202.44;5070698;28;20214;-67
2021/07/31 11:05:24;;;;;;;5.73;1.30;;;;;;;26.37;32.90;96193.97;5072015;28;20416;-67
2021/07/31 11:07:56;;;;;;;3.57;1.80;;;;;;;25.97;33.37;96203.00;5073202;28;20198;-67
2021/07/31 11:10:44;;;;;;;4.47;1.37;;;;;;;26.39;32.02;96195.56;5050861;28;20425;-65
2021/07/31 11:13:32;;;;;;;3.17;1.23;;;;;;;25.51;34.68;96199.44;5072766;28;20417;-66
2021/07/31 11:16:09;;;;;;;3.93;1.50;;;;;;;25.41;35.15;96197.56;5072819;28;20479;-67
2021/07/31 11:18:42;;;;;;;3.17;1.50;;;;;;;25.23;34.85;96193.56;5047214;28;20511;-66
2021/07/31 11:21:09;;;;;;;4.53;1.33;;;;;;;26.02;33.75;96189.56;5039997;28;20428;-67
2021/07/31 11:23:46;;;;;;;8.10;1.60;;;;;;;25.63;33.98;96196.47;5054575;28;20519;-66
2021/07/31 11:26:32;;;;;;;7.17;2.20;;;;;;;25.39;34.32;96205.06;5065177;28;20487;-65
2021/07/31 11:28:58;;;;;;;4.93;1.70;;;;;;;25.39;34.90;96196.22;5073134;28;20515;-67
2021/07/31 11:31:24;;;;;;;3.53;1.30;;;;;;;25.65;34.31;96196.16;5063079;28;20839;-66